sensor_id;sensor_type;location;lat;lon;timestamp;P1;durP1;ratioP1;P2;durP2;ratioP2
73113;SDS011;61301;51.956;5.876;2022-09-17T00:00:43;3.83;;;0.70;;
73113;SDS011;61301;51.956;5.876;2022-09-17T00:03:10;7.32;;;1.27;;
73113;SDS011;61301;51.956;5.876;2022-09-17T00:05:36;2.28;;;0.60;;
73113;SDS011;61301;51.956;5.876;2022-09-17T00:08:03;2.88;;;0.60;;
73113;SDS011;61301;51.956;5.876;2022-09-17T00:10:30;3.75;;;0.82;;
73113;SDS011;61301;51.956;5.876;2022-09-17T00:12:57;5.22;;;0.90;;
73113;SDS011;61301;51.956;5.876;2022-09-17T00:15:23;6.25;;;1.25;;
73113;SDS011;61301;51.956;5.876;2022-09-17T00:17:54;6.97;;;1.20;;
73113;SDS011;61301;51.956;5.876;2022-09-17T00:20:25;7.80;;;1.55;;
73113;SDS011;61301;51.956;5.876;2022-09-17T00:22:51;8.30;;;1.98;;
73113;SDS011;61301;51.956;5.876;2022-09-17T00:25:18;6.32;;;1.20;;
73113;SDS011;61301;51.956;5.876;2022-09-17T00:27:45;8.27;;;1.65;;
73113;SDS011;61301;51.956;5.876;2022-09-17T00:30:11;11.15;;;2.40;;
73113;SDS011;61301;51.956;5.876;2022-09-17T00:32:38;6.53;;;1.30;;
73113;SDS011;61301;51.956;5.876;2022-09-17T00:35:04;13.90;;;2.75;;
73113;SDS011;61301;51.956;5.876;2022-09-17T00:37:31;16.85;;;3.17;;
73113;SDS011;61301;51.956;5.876;2022-09-17T00:39:57;8.60;;;2.17;;
73113;SDS011;61301;51.956;5.876;2022-09-17T00:42:23;9.77;;;1.90;;
73113;SDS011;61301;51.956;5.876;2022-09-17T00:44:53;10.10;;;2.20;;
73113;SDS011;61301;51.956;5.876;2022-09-17T00:48:21;13.20;;;2.80;;
73113;SDS011;61301;51.956;5.876;2022-09-17T00:50:25;7.05;;;1.60;;
73113;SDS011;61301;51.956;5.876;2022-09-17T00:53:03;11.25;;;1.92;;
73113;SDS011;61301;51.956;5.876;2022-09-17T00:55:34;9.88;;;1.73;;
73113;SDS011;61301;51.956;5.876;2022-09-17T00:58:05;9.00;;;1.80;;
73113;SDS011;61301;51.956;5.876;2022-09-17T01:00:32;7.93;;;1.52;;
73113;SDS011;61301;51.956;5.876;2022-09-17T01:02:58;9.18;;;2.75;;
73113;SDS011;61301;51.956;5.876;2022-09-17T01:05:37;10.52;;;2.00;;
73113;SDS011;61301;51.956;5.876;2022-09-17T01:10:52;11.82;;;1.90;;
73113;SDS011;61301;51.956;5.876;2022-09-17T01:13:40;4.53;;;1.08;;
73113;SDS011;61301;51.956;5.876;2022-09-17T01:17:14;10.38;;;1.90;;
73113;SDS011;61301;51.956;5.876;2022-09-17T01:19:43;12.27;;;2.00;;
73113;SDS011;61301;51.956;5.876;2022-09-17T01:22:39;5.05;;;1.35;;
73113;SDS011;61301;51.956;5.876;2022-09-17T01:28:26;6.00;;;0.80;;
73113;SDS011;61301;51.956;5.876;2022-09-17T01:34:10;13.05;;;1.63;;
73113;SDS011;61301;51.956;5.876;2022-09-17T01:45:42;10.40;;;1.92;;
73113;SDS011;61301;51.956;5.876;2022-09-17T01:48:15;8.45;;;2.10;;
73113;SDS011;61301;51.956;5.876;2022-09-17T01:53:17;6.25;;;1.05;;
73113;SDS011;61301;51.956;5.876;2022-09-17T01:55:47;3.85;;;1.17;;
73113;SDS011;61301;51.956;5.876;2022-09-17T02:00:53;5.65;;;0.93;;
73113;SDS011;61301;51.956;5.876;2022-09-17T02:03:34;9.43;;;2.10;;
73113;SDS011;61301;51.956;5.876;2022-09-17T02:06:10;4.78;;;1.10;;
73113;SDS011;61301;51.956;5.876;2022-09-17T02:08:41;2.53;;;0.70;;
73113;SDS011;61301;51.956;5.876;2022-09-17T02:11:11;3.97;;;1.10;;
73113;SDS011;61301;51.956;5.876;2022-09-17T02:13:42;6.78;;;1.38;;
73113;SDS011;61301;51.956;5.876;2022-09-17T02:16:33;5.97;;;1.20;;
73113;SDS011;61301;51.956;5.876;2022-09-17T02:19:02;2.42;;;0.98;;
73113;SDS011;61301;51.956;5.876;2022-09-17T02:21:37;2.65;;;0.43;;
73113;SDS011;61301;51.956;5.876;2022-09-17T02:24:24;2.72;;;0.50;;
73113;SDS011;61301;51.956;5.876;2022-09-17T02:29:47;0.90;;;0.30;;
73113;SDS011;61301;51.956;5.876;2022-09-17T02:32:13;1.85;;;0.40;;
73113;SDS011;61301;51.956;5.876;2022-09-17T02:34:39;0.85;;;0.20;;
73113;SDS011;61301;51.956;5.876;2022-09-17T02:37:06;1.02;;;0.30;;
73113;SDS011;61301;51.956;5.876;2022-09-17T02:39:32;0.50;;;0.30;;
73113;SDS011;61301;51.956;5.876;2022-09-17T02:44:36;0.25;;;0.13;;
73113;SDS011;61301;51.956;5.876;2022-09-17T02:50:11;3.08;;;0.60;;
73113;SDS011;61301;51.956;5.876;2022-09-17T02:53:11;2.13;;;0.30;;
73113;SDS011;61301;51.956;5.876;2022-09-17T02:55:44;0.80;;;0.20;;
73113;SDS011;61301;51.956;5.876;2022-09-17T02:58:25;2.45;;;0.55;;
73113;SDS011;61301;51.956;5.876;2022-09-17T03:00:56;4.90;;;1.20;;
73113;SDS011;61301;51.956;5.876;2022-09-17T03:03:39;1.63;;;0.50;;
73113;SDS011;61301;51.956;5.876;2022-09-17T03:06:07;2.58;;;0.50;;
73113;SDS011;61301;51.956;5.876;2022-09-17T03:08:35;1.58;;;0.65;;
73113;SDS011;61301;51.956;5.876;2022-09-17T03:11:05;4.38;;;0.70;;
73113;SDS011;61301;51.956;5.876;2022-09-17T03:13:33;2.92;;;0.45;;
73113;SDS011;61301;51.956;5.876;2022-09-17T03:16:03;1.75;;;0.45;;
73113;SDS011;61301;51.956;5.876;2022-09-17T03:18:30;1.17;;;0.40;;
73113;SDS011;61301;51.956;5.876;2022-09-17T03:20:57;4.13;;;0.57;;
73113;SDS011;61301;51.956;5.876;2022-09-17T03:23:23;2.35;;;0.77;;
73113;SDS011;61301;51.956;5.876;2022-09-17T03:25:49;1.60;;;0.40;;
73113;SDS011;61301;51.956;5.876;2022-09-17T03:28:15;3.28;;;0.90;;
73113;SDS011;61301;51.956;5.876;2022-09-17T03:30:44;5.20;;;0.68;;
73113;SDS011;61301;51.956;5.876;2022-09-17T03:33:11;1.48;;;0.45;;
73113;SDS011;61301;51.956;5.876;2022-09-17T03:35:37;1.35;;;0.50;;
73113;SDS011;61301;51.956;5.876;2022-09-17T03:38:06;2.40;;;0.50;;
73113;SDS011;61301;51.956;5.876;2022-09-17T03:40:32;3.05;;;0.80;;
73113;SDS011;61301;51.956;5.876;2022-09-17T03:42:58;3.78;;;0.68;;
73113;SDS011;61301;51.956;5.876;2022-09-17T03:45:24;3.80;;;1.02;;
73113;SDS011;61301;51.956;5.876;2022-09-17T03:47:50;9.32;;;1.35;;
73113;SDS011;61301;51.956;5.876;2022-09-17T03:50:16;6.93;;;0.93;;
73113;SDS011;61301;51.956;5.876;2022-09-17T03:52:42;5.88;;;1.20;;
73113;SDS011;61301;51.956;5.876;2022-09-17T03:55:08;5.07;;;1.02;;
73113;SDS011;61301;51.956;5.876;2022-09-17T03:57:36;6.13;;;1.30;;
73113;SDS011;61301;51.956;5.876;2022-09-17T04:00:03;3.63;;;0.95;;
73113;SDS011;61301;51.956;5.876;2022-09-17T04:02:37;6.40;;;0.65;;
73113;SDS011;61301;51.956;5.876;2022-09-17T04:05:03;4.13;;;1.20;;
73113;SDS011;61301;51.956;5.876;2022-09-17T04:07:30;10.73;;;2.33;;
73113;SDS011;61301;51.956;5.876;2022-09-17T04:09:55;7.95;;;1.30;;
73113;SDS011;61301;51.956;5.876;2022-09-17T04:12:21;3.35;;;0.52;;
73113;SDS011;61301;51.956;5.876;2022-09-17T04:14:47;3.50;;;0.55;;
73113;SDS011;61301;51.956;5.876;2022-09-17T04:17:13;11.60;;;2.00;;
73113;SDS011;61301;51.956;5.876;2022-09-17T04:19:43;7.57;;;1.50;;
73113;SDS011;61301;51.956;5.876;2022-09-17T04:22:09;4.00;;;0.70;;
73113;SDS011;61301;51.956;5.876;2022-09-17T04:24:35;4.63;;;0.90;;
73113;SDS011;61301;51.956;5.876;2022-09-17T04:27:01;8.18;;;1.65;;
73113;SDS011;61301;51.956;5.876;2022-09-17T04:29:27;8.40;;;1.50;;
73113;SDS011;61301;51.956;5.876;2022-09-17T04:31:53;5.03;;;0.98;;
73113;SDS011;61301;51.956;5.876;2022-09-17T04:34:19;6.05;;;1.30;;
73113;SDS011;61301;51.956;5.876;2022-09-17T04:36:45;10.85;;;1.60;;
73113;SDS011;61301;51.956;5.876;2022-09-17T04:39:11;6.28;;;1.25;;
73113;SDS011;61301;51.956;5.876;2022-09-17T04:41:37;7.07;;;1.48;;
73113;SDS011;61301;51.956;5.876;2022-09-17T04:44:03;10.20;;;1.88;;
73113;SDS011;61301;51.956;5.876;2022-09-17T04:46:29;8.00;;;1.50;;
73113;SDS011;61301;51.956;5.876;2022-09-17T04:48:55;4.38;;;1.23;;
73113;SDS011;61301;51.956;5.876;2022-09-17T04:51:21;7.43;;;1.58;;
73113;SDS011;61301;51.956;5.876;2022-09-17T04:53:47;8.80;;;1.30;;
73113;SDS011;61301;51.956;5.876;2022-09-17T04:56:13;6.43;;;1.20;;
73113;SDS011;61301;51.956;5.876;2022-09-17T04:58:39;7.68;;;1.20;;
73113;SDS011;61301;51.956;5.876;2022-09-17T05:01:06;11.95;;;1.52;;
73113;SDS011;61301;51.956;5.876;2022-09-17T05:03:32;6.03;;;1.00;;
73113;SDS011;61301;51.956;5.876;2022-09-17T05:05:58;2.65;;;0.77;;
73113;SDS011;61301;51.956;5.876;2022-09-17T05:08:24;6.60;;;1.23;;
73113;SDS011;61301;51.956;5.876;2022-09-17T05:10:50;3.92;;;0.40;;
73113;SDS011;61301;51.956;5.876;2022-09-17T05:13:16;2.67;;;0.50;;
73113;SDS011;61301;51.956;5.876;2022-09-17T05:15:43;9.40;;;2.05;;
73113;SDS011;61301;51.956;5.876;2022-09-17T05:18:09;9.63;;;1.90;;
73113;SDS011;61301;51.956;5.876;2022-09-17T05:20:35;7.18;;;1.33;;
73113;SDS011;61301;51.956;5.876;2022-09-17T05:23:01;8.80;;;1.35;;
73113;SDS011;61301;51.956;5.876;2022-09-17T05:25:27;6.45;;;1.02;;
73113;SDS011;61301;51.956;5.876;2022-09-17T05:27:53;4.93;;;1.05;;
73113;SDS011;61301;51.956;5.876;2022-09-17T05:30:19;3.45;;;0.88;;
73113;SDS011;61301;51.956;5.876;2022-09-17T05:32:45;4.28;;;1.52;;
73113;SDS011;61301;51.956;5.876;2022-09-17T05:35:12;5.32;;;0.75;;
73113;SDS011;61301;51.956;5.876;2022-09-17T05:37:38;8.88;;;1.55;;
73113;SDS011;61301;51.956;5.876;2022-09-17T05:40:05;4.75;;;0.98;;
73113;SDS011;61301;51.956;5.876;2022-09-17T05:42:32;5.95;;;1.17;;
73113;SDS011;61301;51.956;5.876;2022-09-17T05:44:58;6.70;;;1.33;;
73113;SDS011;61301;51.956;5.876;2022-09-17T05:47:24;5.82;;;1.02;;
73113;SDS011;61301;51.956;5.876;2022-09-17T05:49:50;10.02;;;1.50;;
73113;SDS011;61301;51.956;5.876;2022-09-17T05:52:16;4.47;;;0.98;;
73113;SDS011;61301;51.956;5.876;2022-09-17T05:54:43;3.70;;;0.70;;
73113;SDS011;61301;51.956;5.876;2022-09-17T05:57:09;5.05;;;1.27;;
73113;SDS011;61301;51.956;5.876;2022-09-17T05:59:35;2.90;;;0.50;;
73113;SDS011;61301;51.956;5.876;2022-09-17T06:02:01;2.40;;;0.60;;
73113;SDS011;61301;51.956;5.876;2022-09-17T06:04:28;2.35;;;0.43;;
73113;SDS011;61301;51.956;5.876;2022-09-17T06:06:54;3.47;;;0.60;;
73113;SDS011;61301;51.956;5.876;2022-09-17T06:09:19;4.25;;;0.93;;
73113;SDS011;61301;51.956;5.876;2022-09-17T06:11:45;3.53;;;0.90;;
73113;SDS011;61301;51.956;5.876;2022-09-17T06:14:11;3.47;;;0.80;;
73113;SDS011;61301;51.956;5.876;2022-09-17T06:16:37;5.53;;;1.08;;
73113;SDS011;61301;51.956;5.876;2022-09-17T06:19:03;6.13;;;1.02;;
73113;SDS011;61301;51.956;5.876;2022-09-17T06:21:30;4.47;;;1.13;;
73113;SDS011;61301;51.956;5.876;2022-09-17T06:23:56;3.00;;;0.55;;
73113;SDS011;61301;51.956;5.876;2022-09-17T06:26:22;2.78;;;0.50;;
73113;SDS011;61301;51.956;5.876;2022-09-17T06:28:48;3.33;;;1.00;;
73113;SDS011;61301;51.956;5.876;2022-09-17T06:31:14;5.70;;;1.10;;
73113;SDS011;61301;51.956;5.876;2022-09-17T06:33:41;5.72;;;1.17;;
73113;SDS011;61301;51.956;5.876;2022-09-17T06:36:07;4.55;;;0.65;;
73113;SDS011;61301;51.956;5.876;2022-09-17T06:38:36;5.53;;;1.17;;
73113;SDS011;61301;51.956;5.876;2022-09-17T06:41:03;7.55;;;1.05;;
73113;SDS011;61301;51.956;5.876;2022-09-17T06:43:29;5.88;;;1.25;;
73113;SDS011;61301;51.956;5.876;2022-09-17T06:45:57;3.88;;;0.60;;
73113;SDS011;61301;51.956;5.876;2022-09-17T06:48:25;2.35;;;0.47;;
73113;SDS011;61301;51.956;5.876;2022-09-17T06:50:52;6.97;;;1.40;;
73113;SDS011;61301;51.956;5.876;2022-09-17T06:53:19;7.00;;;2.00;;
73113;SDS011;61301;51.956;5.876;2022-09-17T06:55:46;6.40;;;1.40;;
73113;SDS011;61301;51.956;5.876;2022-09-17T06:58:12;5.07;;;0.75;;
73113;SDS011;61301;51.956;5.876;2022-09-17T07:00:38;5.47;;;0.90;;
73113;SDS011;61301;51.956;5.876;2022-09-17T07:03:04;2.30;;;0.65;;
73113;SDS011;61301;51.956;5.876;2022-09-17T07:05:31;5.45;;;0.73;;
73113;SDS011;61301;51.956;5.876;2022-09-17T07:08:02;5.43;;;0.95;;
73113;SDS011;61301;51.956;5.876;2022-09-17T07:10:29;5.75;;;1.17;;
73113;SDS011;61301;51.956;5.876;2022-09-17T07:12:55;4.57;;;0.93;;
73113;SDS011;61301;51.956;5.876;2022-09-17T07:15:22;4.07;;;1.08;;
73113;SDS011;61301;51.956;5.876;2022-09-17T07:17:48;3.65;;;0.88;;
73113;SDS011;61301;51.956;5.876;2022-09-17T07:20:14;6.47;;;1.15;;
73113;SDS011;61301;51.956;5.876;2022-09-17T07:22:40;4.32;;;1.15;;
73113;SDS011;61301;51.956;5.876;2022-09-17T07:25:06;7.07;;;1.50;;
73113;SDS011;61301;51.956;5.876;2022-09-17T07:27:32;6.75;;;1.17;;
73113;SDS011;61301;51.956;5.876;2022-09-17T07:29:58;5.68;;;1.20;;
73113;SDS011;61301;51.956;5.876;2022-09-17T07:32:24;6.07;;;1.10;;
73113;SDS011;61301;51.956;5.876;2022-09-17T07:34:51;5.97;;;0.75;;
73113;SDS011;61301;51.956;5.876;2022-09-17T07:37:17;2.10;;;0.50;;
73113;SDS011;61301;51.956;5.876;2022-09-17T07:39:43;3.05;;;0.80;;
73113;SDS011;61301;51.956;5.876;2022-09-17T07:42:09;4.72;;;0.80;;
73113;SDS011;61301;51.956;5.876;2022-09-17T07:44:35;4.82;;;1.10;;
73113;SDS011;61301;51.956;5.876;2022-09-17T07:47:02;4.97;;;1.23;;
73113;SDS011;61301;51.956;5.876;2022-09-17T07:49:28;3.15;;;0.60;;
73113;SDS011;61301;51.956;5.876;2022-09-17T07:51:55;5.22;;;0.73;;
73113;SDS011;61301;51.956;5.876;2022-09-17T07:54:22;8.48;;;0.90;;
73113;SDS011;61301;51.956;5.876;2022-09-17T07:56:48;3.22;;;0.90;;
73113;SDS011;61301;51.956;5.876;2022-09-17T07:59:14;4.28;;;0.70;;
73113;SDS011;61301;51.956;5.876;2022-09-17T08:01:40;3.17;;;1.27;;
73113;SDS011;61301;51.956;5.876;2022-09-17T08:04:06;7.60;;;1.10;;
73113;SDS011;61301;51.956;5.876;2022-09-17T08:06:35;2.63;;;0.65;;
73113;SDS011;61301;51.956;5.876;2022-09-17T08:09:02;3.45;;;0.60;;
73113;SDS011;61301;51.956;5.876;2022-09-17T08:11:29;6.70;;;1.40;;
73113;SDS011;61301;51.956;5.876;2022-09-17T08:13:55;5.22;;;0.80;;
73113;SDS011;61301;51.956;5.876;2022-09-17T08:16:21;5.85;;;1.05;;
73113;SDS011;61301;51.956;5.876;2022-09-17T08:18:53;6.22;;;1.10;;
73113;SDS011;61301;51.956;5.876;2022-09-17T08:21:20;2.88;;;0.70;;
73113;SDS011;61301;51.956;5.876;2022-09-17T08:23:46;7.47;;;1.38;;
73113;SDS011;61301;51.956;5.876;2022-09-17T08:26:14;6.28;;;1.00;;
73113;SDS011;61301;51.956;5.876;2022-09-17T08:28:44;3.08;;;1.02;;
73113;SDS011;61301;51.956;5.876;2022-09-17T08:31:17;4.65;;;1.25;;
73113;SDS011;61301;51.956;5.876;2022-09-17T08:33:44;3.85;;;0.90;;
73113;SDS011;61301;51.956;5.876;2022-09-17T08:36:11;5.13;;;0.80;;
73113;SDS011;61301;51.956;5.876;2022-09-17T08:38:41;5.22;;;0.75;;
73113;SDS011;61301;51.956;5.876;2022-09-17T08:43:34;3.10;;;0.70;;
73113;SDS011;61301;51.956;5.876;2022-09-17T08:46:02;2.53;;;0.55;;
73113;SDS011;61301;51.956;5.876;2022-09-17T08:48:30;5.75;;;0.65;;
73113;SDS011;61301;51.956;5.876;2022-09-17T08:51:06;4.78;;;0.60;;
73113;SDS011;61301;51.956;5.876;2022-09-17T08:56:29;6.35;;;1.00;;
73113;SDS011;61301;51.956;5.876;2022-09-17T08:59:03;4.68;;;1.17;;
73113;SDS011;61301;51.956;5.876;2022-09-17T09:04:56;3.33;;;0.60;;
73113;SDS011;61301;51.956;5.876;2022-09-17T09:07:30;5.90;;;1.00;;
73113;SDS011;61301;51.956;5.876;2022-09-17T09:12:30;1.48;;;0.63;;
73113;SDS011;61301;51.956;5.876;2022-09-17T09:15:01;3.28;;;0.70;;
73113;SDS011;61301;51.956;5.876;2022-09-17T09:17:40;1.85;;;0.80;;
73113;SDS011;61301;51.956;5.876;2022-09-17T09:20:13;2.55;;;0.70;;
73113;SDS011;61301;51.956;5.876;2022-09-17T09:22:56;3.05;;;0.60;;
73113;SDS011;61301;51.956;5.876;2022-09-17T09:25:32;4.88;;;0.95;;
73113;SDS011;61301;51.956;5.876;2022-09-17T09:28:25;2.38;;;0.40;;
73113;SDS011;61301;51.956;5.876;2022-09-17T09:31:15;1.38;;;0.47;;
73113;SDS011;61301;51.956;5.876;2022-09-17T09:33:48;2.88;;;0.50;;
73113;SDS011;61301;51.956;5.876;2022-09-17T09:36:15;4.28;;;0.70;;
73113;SDS011;61301;51.956;5.876;2022-09-17T09:41:25;4.97;;;0.98;;
73113;SDS011;61301;51.956;5.876;2022-09-17T09:44:09;3.72;;;0.68;;
73113;SDS011;61301;51.956;5.876;2022-09-17T09:51:59;5.03;;;0.50;;
73113;SDS011;61301;51.956;5.876;2022-09-17T09:57:47;3.33;;;0.95;;
73113;SDS011;61301;51.956;5.876;2022-09-17T10:05:26;2.13;;;0.57;;
73113;SDS011;61301;51.956;5.876;2022-09-17T10:07:52;2.50;;;0.43;;
73113;SDS011;61301;51.956;5.876;2022-09-17T10:10:18;3.15;;;0.70;;
73113;SDS011;61301;51.956;5.876;2022-09-17T10:12:44;1.95;;;0.50;;
73113;SDS011;61301;51.956;5.876;2022-09-17T10:15:24;1.85;;;0.40;;
73113;SDS011;61301;51.956;5.876;2022-09-17T10:23:15;1.55;;;0.50;;
73113;SDS011;61301;51.956;5.876;2022-09-17T10:25:41;1.00;;;0.50;;
73113;SDS011;61301;51.956;5.876;2022-09-17T10:30:54;2.85;;;0.63;;
73113;SDS011;61301;51.956;5.876;2022-09-17T10:33:28;3.20;;;0.60;;
73113;SDS011;61301;51.956;5.876;2022-09-17T10:38:36;1.95;;;0.40;;
73113;SDS011;61301;51.956;5.876;2022-09-17T10:41:10;3.00;;;0.30;;
73113;SDS011;61301;51.956;5.876;2022-09-17T10:43:39;4.47;;;0.68;;
73113;SDS011;61301;51.956;5.876;2022-09-17T10:46:25;2.70;;;0.57;;
73113;SDS011;61301;51.956;5.876;2022-09-17T10:48:57;2.15;;;0.55;;
73113;SDS011;61301;51.956;5.876;2022-09-17T10:51:33;0.93;;;0.28;;
73113;SDS011;61301;51.956;5.876;2022-09-17T10:54:02;1.48;;;0.22;;
73113;SDS011;61301;51.956;5.876;2022-09-17T10:56:44;1.48;;;0.43;;
73113;SDS011;61301;51.956;5.876;2022-09-17T10:59:21;0.90;;;0.10;;
73113;SDS011;61301;51.956;5.876;2022-09-17T11:02:02;0.98;;;0.30;;
73113;SDS011;61301;51.956;5.876;2022-09-17T11:05:06;1.30;;;0.50;;
73113;SDS011;61301;51.956;5.876;2022-09-17T11:08:01;2.40;;;0.50;;
73113;SDS011;61301;51.956;5.876;2022-09-17T11:10:40;1.42;;;0.25;;
73113;SDS011;61301;51.956;5.876;2022-09-17T11:13:26;3.60;;;0.60;;
73113;SDS011;61301;51.956;5.876;2022-09-17T11:16:09;3.78;;;0.70;;
73113;SDS011;61301;51.956;5.876;2022-09-17T11:18:48;2.47;;;0.65;;
73113;SDS011;61301;51.956;5.876;2022-09-17T11:21:45;1.60;;;0.63;;
73113;SDS011;61301;51.956;5.876;2022-09-17T11:27:02;3.50;;;0.95;;
73113;SDS011;61301;51.956;5.876;2022-09-17T11:35:07;5.85;;;1.10;;
73113;SDS011;61301;51.956;5.876;2022-09-17T11:37:39;5.55;;;1.10;;
73113;SDS011;61301;51.956;5.876;2022-09-17T11:42:52;6.72;;;1.08;;
73113;SDS011;61301;51.956;5.876;2022-09-17T11:45:23;2.53;;;1.20;;
73113;SDS011;61301;51.956;5.876;2022-09-17T11:48:02;4.38;;;0.82;;
73113;SDS011;61301;51.956;5.876;2022-09-17T11:50:36;5.15;;;1.35;;
73113;SDS011;61301;51.956;5.876;2022-09-17T11:55:46;2.78;;;0.93;;
73113;SDS011;61301;51.956;5.876;2022-09-17T11:58:21;8.27;;;1.60;;
73113;SDS011;61301;51.956;5.876;2022-09-17T12:01:00;3.53;;;0.95;;
73113;SDS011;61301;51.956;5.876;2022-09-17T12:03:36;6.22;;;1.52;;
73113;SDS011;61301;51.956;5.876;2022-09-17T12:06:09;5.93;;;1.20;;
73113;SDS011;61301;51.956;5.876;2022-09-17T12:11:18;7.65;;;1.30;;
73113;SDS011;61301;51.956;5.876;2022-09-17T12:14:46;15.00;;;1.88;;
73113;SDS011;61301;51.956;5.876;2022-09-17T12:17:02;5.18;;;1.30;;
73113;SDS011;61301;51.956;5.876;2022-09-17T12:19:34;4.25;;;1.33;;
73113;SDS011;61301;51.956;5.876;2022-09-17T12:22:39;3.30;;;0.85;;
73113;SDS011;61301;51.956;5.876;2022-09-17T12:24:59;2.38;;;0.65;;
73113;SDS011;61301;51.956;5.876;2022-09-17T12:52:16;1.55;;;0.60;;
73113;SDS011;61301;51.956;5.876;2022-09-17T12:54:57;3.20;;;0.60;;
73113;SDS011;61301;51.956;5.876;2022-09-17T13:00:24;2.13;;;0.70;;
73113;SDS011;61301;51.956;5.876;2022-09-17T13:05:34;2.97;;;0.77;;
73113;SDS011;61301;51.956;5.876;2022-09-17T13:11:19;5.30;;;0.80;;
73113;SDS011;61301;51.956;5.876;2022-09-17T13:14:21;3.35;;;0.80;;
73113;SDS011;61301;51.956;5.876;2022-09-17T13:17:11;8.38;;;1.15;;
73113;SDS011;61301;51.956;5.876;2022-09-17T13:19:49;3.13;;;0.70;;
73113;SDS011;61301;51.956;5.876;2022-09-17T13:22:28;2.45;;;0.73;;
73113;SDS011;61301;51.956;5.876;2022-09-17T13:25:07;2.25;;;0.70;;
73113;SDS011;61301;51.956;5.876;2022-09-17T13:27:36;3.78;;;0.70;;
73113;SDS011;61301;51.956;5.876;2022-09-17T13:30:24;4.15;;;0.90;;
73113;SDS011;61301;51.956;5.876;2022-09-17T13:32:50;1.85;;;0.50;;
73113;SDS011;61301;51.956;5.876;2022-09-17T13:40:21;3.42;;;0.82;;
73113;SDS011;61301;51.956;5.876;2022-09-17T13:42:54;3.13;;;0.90;;
73113;SDS011;61301;51.956;5.876;2022-09-17T13:45:23;3.30;;;0.70;;
73113;SDS011;61301;51.956;5.876;2022-09-17T13:47:54;5.22;;;0.90;;
73113;SDS011;61301;51.956;5.876;2022-09-17T13:50:35;2.03;;;0.70;;
73113;SDS011;61301;51.956;5.876;2022-09-17T13:55:54;5.30;;;1.25;;
73113;SDS011;61301;51.956;5.876;2022-09-17T13:58:24;4.75;;;1.42;;
73113;SDS011;61301;51.956;5.876;2022-09-17T14:00:54;5.28;;;0.65;;
73113;SDS011;61301;51.956;5.876;2022-09-17T14:13:48;5.30;;;0.90;;
73113;SDS011;61301;51.956;5.876;2022-09-17T14:17:06;4.90;;;1.13;;
73113;SDS011;61301;51.956;5.876;2022-09-17T14:24:33;4.95;;;1.15;;
73113;SDS011;61301;51.956;5.876;2022-09-17T14:30:19;5.00;;;1.65;;
73113;SDS011;61301;51.956;5.876;2022-09-17T14:40:33;5.32;;;1.48;;
73113;SDS011;61301;51.956;5.876;2022-09-17T14:42:59;3.10;;;0.93;;
73113;SDS011;61301;51.956;5.876;2022-09-17T14:45:31;5.43;;;1.30;;
73113;SDS011;61301;51.956;5.876;2022-09-17T14:50:48;3.17;;;1.20;;
73113;SDS011;61301;51.956;5.876;2022-09-17T14:53:15;4.57;;;1.15;;
73113;SDS011;61301;51.956;5.876;2022-09-17T14:55:44;2.47;;;0.75;;
73113;SDS011;61301;51.956;5.876;2022-09-17T14:58:27;2.58;;;0.98;;
73113;SDS011;61301;51.956;5.876;2022-09-17T15:00:59;3.95;;;1.10;;
73113;SDS011;61301;51.956;5.876;2022-09-17T15:03:26;3.85;;;0.68;;
73113;SDS011;61301;51.956;5.876;2022-09-17T15:05:52;3.20;;;1.10;;
73113;SDS011;61301;51.956;5.876;2022-09-17T15:08:19;3.08;;;0.68;;
73113;SDS011;61301;51.956;5.876;2022-09-17T15:10:50;2.38;;;0.70;;
73113;SDS011;61301;51.956;5.876;2022-09-17T15:13:28;3.08;;;0.60;;
73113;SDS011;61301;51.956;5.876;2022-09-17T15:15:59;7.30;;;1.80;;
73113;SDS011;61301;51.956;5.876;2022-09-17T15:18:39;4.53;;;0.80;;
73113;SDS011;61301;51.956;5.876;2022-09-17T15:21:15;4.13;;;0.93;;
73113;SDS011;61301;51.956;5.876;2022-09-17T15:23:56;4.40;;;1.10;;
73113;SDS011;61301;51.956;5.876;2022-09-17T15:26:28;5.15;;;0.80;;
73113;SDS011;61301;51.956;5.876;2022-09-17T15:28:58;4.90;;;1.05;;
73113;SDS011;61301;51.956;5.876;2022-09-17T15:31:27;5.90;;;1.50;;
73113;SDS011;61301;51.956;5.876;2022-09-17T15:33:53;4.80;;;0.90;;
73113;SDS011;61301;51.956;5.876;2022-09-17T15:36:23;2.38;;;0.88;;
73113;SDS011;61301;51.956;5.876;2022-09-17T15:38:52;4.88;;;0.95;;
73113;SDS011;61301;51.956;5.876;2022-09-17T15:41:27;5.03;;;1.77;;
73113;SDS011;61301;51.956;5.876;2022-09-17T15:46:45;4.90;;;0.90;;
73113;SDS011;61301;51.956;5.876;2022-09-17T15:54:57;5.38;;;0.70;;
73113;SDS011;61301;51.956;5.876;2022-09-17T15:57:24;3.15;;;0.80;;
73113;SDS011;61301;51.956;5.876;2022-09-17T15:59:53;2.83;;;0.73;;
73113;SDS011;61301;51.956;5.876;2022-09-17T16:02:30;6.40;;;1.13;;
73113;SDS011;61301;51.956;5.876;2022-09-17T16:05:43;2.15;;;0.70;;
73113;SDS011;61301;51.956;5.876;2022-09-17T16:07:45;3.45;;;1.00;;
73113;SDS011;61301;51.956;5.876;2022-09-17T16:10:12;4.05;;;1.05;;
73113;SDS011;61301;51.956;5.876;2022-09-17T16:12:40;3.08;;;0.75;;
73113;SDS011;61301;51.956;5.876;2022-09-17T16:15:06;4.70;;;1.25;;
73113;SDS011;61301;51.956;5.876;2022-09-17T16:22:42;6.45;;;1.00;;
73113;SDS011;61301;51.956;5.876;2022-09-17T16:25:09;7.22;;;1.33;;
73113;SDS011;61301;51.956;5.876;2022-09-17T16:27:57;4.07;;;0.95;;
73113;SDS011;61301;51.956;5.876;2022-09-17T16:30:24;9.43;;;1.58;;
73113;SDS011;61301;51.956;5.876;2022-09-17T16:32:50;7.90;;;1.48;;
73113;SDS011;61301;51.956;5.876;2022-09-17T16:35:18;8.10;;;1.60;;
73113;SDS011;61301;51.956;5.876;2022-09-17T16:37:49;7.53;;;1.23;;
73113;SDS011;61301;51.956;5.876;2022-09-17T16:40:16;8.13;;;1.85;;
73113;SDS011;61301;51.956;5.876;2022-09-17T16:42:43;6.30;;;1.33;;
73113;SDS011;61301;51.956;5.876;2022-09-17T16:45:09;7.25;;;1.38;;
73113;SDS011;61301;51.956;5.876;2022-09-17T16:47:36;5.43;;;1.30;;
73113;SDS011;61301;51.956;5.876;2022-09-17T16:50:04;8.70;;;1.70;;
73113;SDS011;61301;51.956;5.876;2022-09-17T16:52:32;5.80;;;1.42;;
73113;SDS011;61301;51.956;5.876;2022-09-17T16:54:59;4.68;;;0.98;;
73113;SDS011;61301;51.956;5.876;2022-09-17T16:57:25;7.22;;;1.40;;
73113;SDS011;61301;51.956;5.876;2022-09-17T16:59:51;7.13;;;1.25;;
73113;SDS011;61301;51.956;5.876;2022-09-17T17:02:17;8.10;;;1.42;;
73113;SDS011;61301;51.956;5.876;2022-09-17T17:04:43;7.55;;;1.40;;
73113;SDS011;61301;51.956;5.876;2022-09-17T17:07:09;8.65;;;1.23;;
73113;SDS011;61301;51.956;5.876;2022-09-17T17:09:35;7.28;;;1.75;;
73113;SDS011;61301;51.956;5.876;2022-09-17T17:12:02;6.45;;;1.13;;
73113;SDS011;61301;51.956;5.876;2022-09-17T17:14:28;3.05;;;0.98;;
73113;SDS011;61301;51.956;5.876;2022-09-17T17:16:54;4.63;;;0.77;;
73113;SDS011;61301;51.956;5.876;2022-09-17T17:19:20;2.55;;;0.70;;
73113;SDS011;61301;51.956;5.876;2022-09-17T17:21:50;5.82;;;0.90;;
73113;SDS011;61301;51.956;5.876;2022-09-17T17:24:17;3.22;;;1.10;;
73113;SDS011;61301;51.956;5.876;2022-09-17T17:26:43;1.98;;;0.63;;
73113;SDS011;61301;51.956;5.876;2022-09-17T17:29:12;2.90;;;0.93;;
73113;SDS011;61301;51.956;5.876;2022-09-17T17:31:38;5.63;;;0.95;;
73113;SDS011;61301;51.956;5.876;2022-09-17T17:34:04;3.15;;;1.08;;
73113;SDS011;61301;51.956;5.876;2022-09-17T17:36:30;7.97;;;1.77;;
73113;SDS011;61301;51.956;5.876;2022-09-17T17:38:56;6.45;;;1.20;;
73113;SDS011;61301;51.956;5.876;2022-09-17T17:41:23;6.97;;;1.25;;
73113;SDS011;61301;51.956;5.876;2022-09-17T17:43:51;5.38;;;1.10;;
73113;SDS011;61301;51.956;5.876;2022-09-17T17:46:18;10.95;;;1.98;;
73113;SDS011;61301;51.956;5.876;2022-09-17T17:48:44;6.15;;;1.48;;
73113;SDS011;61301;51.956;5.876;2022-09-17T17:51:10;12.10;;;2.03;;
73113;SDS011;61301;51.956;5.876;2022-09-17T17:53:39;4.63;;;1.23;;
73113;SDS011;61301;51.956;5.876;2022-09-17T17:56:07;4.35;;;1.15;;
73113;SDS011;61301;51.956;5.876;2022-09-17T17:58:34;4.13;;;0.95;;